Terminal Aerodrome Forecast
Issued by NWS Duluth, MN

Home | Current Version | Previous Version | Text Only | Print | Product List | Glossary On
Versions: 1 2 3 4 5 6 7 8 9 10 11 12 13 14
000
FTUS43 KDLH 022300
TAFINL
TAF
KINL 022337Z 0300/0324 21011G20KT P6SM SCT100
     FM030100 21009KT P6SM VCSH BKN080
     FM030500 20004KT P6SM BKN120
     FM031400 28010KT P6SM SKC
     FM032000 29013G25KT P6SM SKC=

USA.gov is the U.S. government's official web portal to all federal, state and local government web resources and services.